sensor_id;sensor_type;location;lat;lon;timestamp;P1;durP1;ratioP1;P2;durP2;ratioP2
80193;SDS011;69515;42.072;21.504;2023-06-14T00:00:52;0.30;;;0.30;;
80193;SDS011;69515;42.072;21.504;2023-06-14T00:03:22;0.35;;;0.30;;
80193;SDS011;69515;42.072;21.504;2023-06-14T00:05:49;0.22;;;0.22;;
80193;SDS011;69515;42.072;21.504;2023-06-14T00:08:16;0.30;;;0.30;;
80193;SDS011;69515;42.072;21.504;2023-06-14T00:10:44;0.30;;;0.30;;
80193;SDS011;69515;42.072;21.504;2023-06-14T00:13:10;0.47;;;0.30;;
80193;SDS011;69515;42.072;21.504;2023-06-14T00:15:37;0.30;;;0.20;;
80193;SDS011;69515;42.072;21.504;2023-06-14T00:18:04;0.38;;;0.20;;
80193;SDS011;69515;42.072;21.504;2023-06-14T00:20:31;0.30;;;0.20;;
80193;SDS011;69515;42.072;21.504;2023-06-14T00:22:58;0.70;;;0.30;;
80193;SDS011;69515;42.072;21.504;2023-06-14T00:25:25;0.30;;;0.30;;
80193;SDS011;69515;42.072;21.504;2023-06-14T00:27:52;0.43;;;0.20;;
80193;SDS011;69515;42.072;21.504;2023-06-14T00:30:18;0.20;;;0.20;;
80193;SDS011;69515;42.072;21.504;2023-06-14T00:32:45;0.47;;;0.30;;
80193;SDS011;69515;42.072;21.504;2023-06-14T00:35:11;0.60;;;0.40;;
80193;SDS011;69515;42.072;21.504;2023-06-14T00:37:37;0.30;;;0.28;;
80193;SDS011;69515;42.072;21.504;2023-06-14T00:40:04;0.73;;;0.30;;
80193;SDS011;69515;42.072;21.504;2023-06-14T00:42:31;0.30;;;0.30;;
80193;SDS011;69515;42.072;21.504;2023-06-14T00:44:57;0.30;;;0.20;;
80193;SDS011;69515;42.072;21.504;2023-06-14T00:47:24;0.57;;;0.40;;
80193;SDS011;69515;42.072;21.504;2023-06-14T00:49:50;0.47;;;0.20;;
80193;SDS011;69515;42.072;21.504;2023-06-14T00:52:17;0.10;;;0.10;;
80193;SDS011;69515;42.072;21.504;2023-06-14T00:54:44;0.20;;;0.20;;
80193;SDS011;69515;42.072;21.504;2023-06-14T00:57:10;0.30;;;0.30;;
80193;SDS011;69515;42.072;21.504;2023-06-14T00:59:40;0.30;;;0.20;;
80193;SDS011;69515;42.072;21.504;2023-06-14T01:02:08;0.70;;;0.30;;
80193;SDS011;69515;42.072;21.504;2023-06-14T01:04:34;0.43;;;0.20;;
80193;SDS011;69515;42.072;21.504;2023-06-14T01:09:41;0.50;;;0.30;;
80193;SDS011;69515;42.072;21.504;2023-06-14T01:12:11;0.30;;;0.30;;
80193;SDS011;69515;42.072;21.504;2023-06-14T01:14:39;0.43;;;0.38;;
80193;SDS011;69515;42.072;21.504;2023-06-14T01:17:07;0.15;;;0.13;;
80193;SDS011;69515;42.072;21.504;2023-06-14T01:19:44;0.45;;;0.32;;
80193;SDS011;69515;42.072;21.504;2023-06-14T01:22:11;0.35;;;0.35;;
80193;SDS011;69515;42.072;21.504;2023-06-14T01:24:37;0.30;;;0.30;;
80193;SDS011;69515;42.072;21.504;2023-06-14T01:27:04;0.98;;;0.40;;
80193;SDS011;69515;42.072;21.504;2023-06-14T01:29:32;0.95;;;0.40;;
80193;SDS011;69515;42.072;21.504;2023-06-14T01:32:01;0.47;;;0.30;;
80193;SDS011;69515;42.072;21.504;2023-06-14T01:34:27;0.68;;;0.40;;
80193;SDS011;69515;42.072;21.504;2023-06-14T01:36:53;0.50;;;0.40;;
80193;SDS011;69515;42.072;21.504;2023-06-14T01:39:20;0.50;;;0.30;;
80193;SDS011;69515;42.072;21.504;2023-06-14T01:41:47;1.00;;;0.30;;
80193;SDS011;69515;42.072;21.504;2023-06-14T01:44:14;0.22;;;0.22;;
80193;SDS011;69515;42.072;21.504;2023-06-14T01:46:41;0.32;;;0.20;;
80193;SDS011;69515;42.072;21.504;2023-06-14T01:49:08;1.10;;;0.40;;
80193;SDS011;69515;42.072;21.504;2023-06-14T01:51:34;0.30;;;0.30;;
80193;SDS011;69515;42.072;21.504;2023-06-14T01:54:00;0.68;;;0.30;;
80193;SDS011;69515;42.072;21.504;2023-06-14T01:56:27;0.30;;;0.30;;
80193;SDS011;69515;42.072;21.504;2023-06-14T01:58:53;0.28;;;0.28;;
80193;SDS011;69515;42.072;21.504;2023-06-14T02:01:19;0.82;;;0.30;;
80193;SDS011;69515;42.072;21.504;2023-06-14T02:03:46;0.40;;;0.30;;
80193;SDS011;69515;42.072;21.504;2023-06-14T02:06:14;0.38;;;0.30;;
80193;SDS011;69515;42.072;21.504;2023-06-14T02:08:43;0.40;;;0.40;;
80193;SDS011;69515;42.072;21.504;2023-06-14T02:11:10;0.40;;;0.30;;
80193;SDS011;69515;42.072;21.504;2023-06-14T02:13:36;0.45;;;0.30;;
80193;SDS011;69515;42.072;21.504;2023-06-14T02:16:02;0.40;;;0.40;;
80193;SDS011;69515;42.072;21.504;2023-06-14T02:18:29;0.30;;;0.30;;
80193;SDS011;69515;42.072;21.504;2023-06-14T02:20:56;0.77;;;0.40;;
80193;SDS011;69515;42.072;21.504;2023-06-14T02:23:22;0.63;;;0.40;;
80193;SDS011;69515;42.072;21.504;2023-06-14T02:25:48;0.30;;;0.30;;
80193;SDS011;69515;42.072;21.504;2023-06-14T02:28:15;0.60;;;0.30;;
80193;SDS011;69515;42.072;21.504;2023-06-14T02:30:41;0.57;;;0.43;;
80193;SDS011;69515;42.072;21.504;2023-06-14T02:33:07;0.77;;;0.40;;
80193;SDS011;69515;42.072;21.504;2023-06-14T02:35:37;1.27;;;0.50;;
80193;SDS011;69515;42.072;21.504;2023-06-14T02:38:03;1.02;;;0.50;;
80193;SDS011;69515;42.072;21.504;2023-06-14T02:40:29;0.40;;;0.40;;
80193;SDS011;69515;42.072;21.504;2023-06-14T02:42:55;0.45;;;0.40;;
80193;SDS011;69515;42.072;21.504;2023-06-14T02:45:21;0.30;;;0.30;;
80193;SDS011;69515;42.072;21.504;2023-06-14T02:47:48;0.30;;;0.30;;
80193;SDS011;69515;42.072;21.504;2023-06-14T02:50:15;0.63;;;0.30;;
80193;SDS011;69515;42.072;21.504;2023-06-14T02:52:42;0.30;;;0.30;;
80193;SDS011;69515;42.072;21.504;2023-06-14T02:55:09;0.47;;;0.40;;
80193;SDS011;69515;42.072;21.504;2023-06-14T02:57:35;0.47;;;0.30;;
80193;SDS011;69515;42.072;21.504;2023-06-14T03:00:02;0.35;;;0.30;;
80193;SDS011;69515;42.072;21.504;2023-06-14T03:02:28;0.75;;;0.35;;
80193;SDS011;69515;42.072;21.504;2023-06-14T03:04:54;0.38;;;0.38;;
80193;SDS011;69515;42.072;21.504;2023-06-14T03:07:21;0.30;;;0.30;;
80193;SDS011;69515;42.072;21.504;2023-06-14T03:09:48;0.30;;;0.30;;
80193;SDS011;69515;42.072;21.504;2023-06-14T03:12:14;0.40;;;0.40;;
80193;SDS011;69515;42.072;21.504;2023-06-14T03:14:40;0.22;;;0.22;;
80193;SDS011;69515;42.072;21.504;2023-06-14T03:17:08;0.55;;;0.40;;
80193;SDS011;69515;42.072;21.504;2023-06-14T03:19:35;0.32;;;0.20;;
80193;SDS011;69515;42.072;21.504;2023-06-14T03:22:02;0.40;;;0.40;;
80193;SDS011;69515;42.072;21.504;2023-06-14T03:24:28;0.30;;;0.30;;
80193;SDS011;69515;42.072;21.504;2023-06-14T03:26:54;0.85;;;0.47;;
80193;SDS011;69515;42.072;21.504;2023-06-14T03:29:21;0.63;;;0.40;;
80193;SDS011;69515;42.072;21.504;2023-06-14T03:34:34;0.40;;;0.40;;
80193;SDS011;69515;42.072;21.504;2023-06-14T03:37:00;0.40;;;0.40;;
80193;SDS011;69515;42.072;21.504;2023-06-14T03:39:26;0.40;;;0.40;;
80193;SDS011;69515;42.072;21.504;2023-06-14T03:41:53;0.45;;;0.45;;
80193;SDS011;69515;42.072;21.504;2023-06-14T03:44:19;0.30;;;0.30;;
80193;SDS011;69515;42.072;21.504;2023-06-14T03:46:45;0.30;;;0.30;;
80193;SDS011;69515;42.072;21.504;2023-06-14T03:49:12;0.35;;;0.35;;
80193;SDS011;69515;42.072;21.504;2023-06-14T03:51:38;0.30;;;0.30;;
80193;SDS011;69515;42.072;21.504;2023-06-14T03:54:05;0.43;;;0.32;;
80193;SDS011;69515;42.072;21.504;2023-06-14T03:56:32;0.45;;;0.45;;
80193;SDS011;69515;42.072;21.504;2023-06-14T03:58:58;0.40;;;0.40;;
80193;SDS011;69515;42.072;21.504;2023-06-14T04:01:24;0.40;;;0.40;;
80193;SDS011;69515;42.072;21.504;2023-06-14T04:03:54;0.45;;;0.30;;
80193;SDS011;69515;42.072;21.504;2023-06-14T04:06:20;0.30;;;0.30;;
80193;SDS011;69515;42.072;21.504;2023-06-14T04:08:47;0.43;;;0.40;;
80193;SDS011;69515;42.072;21.504;2023-06-14T04:11:14;0.75;;;0.50;;
80193;SDS011;69515;42.072;21.504;2023-06-14T04:13:41;0.20;;;0.20;;
80193;SDS011;69515;42.072;21.504;2023-06-14T04:16:07;0.40;;;0.40;;
80193;SDS011;69515;42.072;21.504;2023-06-14T04:18:33;0.40;;;0.40;;
80193;SDS011;69515;42.072;21.504;2023-06-14T04:20:59;0.60;;;0.45;;
80193;SDS011;69515;42.072;21.504;2023-06-14T04:23:25;0.35;;;0.35;;
80193;SDS011;69515;42.072;21.504;2023-06-14T04:25:53;0.40;;;0.40;;
80193;SDS011;69515;42.072;21.504;2023-06-14T04:28:19;1.75;;;0.70;;
80193;SDS011;69515;42.072;21.504;2023-06-14T04:30:50;0.32;;;0.32;;
80193;SDS011;69515;42.072;21.504;2023-06-14T04:33:18;0.52;;;0.35;;
80193;SDS011;69515;42.072;21.504;2023-06-14T04:35:45;0.40;;;0.40;;
80193;SDS011;69515;42.072;21.504;2023-06-14T04:38:12;0.50;;;0.40;;
80193;SDS011;69515;42.072;21.504;2023-06-14T04:40:40;0.90;;;0.38;;
80193;SDS011;69515;42.072;21.504;2023-06-14T04:43:11;0.40;;;0.40;;
80193;SDS011;69515;42.072;21.504;2023-06-14T04:45:37;0.40;;;0.40;;
80193;SDS011;69515;42.072;21.504;2023-06-14T04:48:05;0.32;;;0.32;;
80193;SDS011;69515;42.072;21.504;2023-06-14T04:50:31;0.30;;;0.30;;
80193;SDS011;69515;42.072;21.504;2023-06-14T04:52:58;0.30;;;0.30;;
80193;SDS011;69515;42.072;21.504;2023-06-14T04:55:24;0.40;;;0.40;;
80193;SDS011;69515;42.072;21.504;2023-06-14T04:57:51;0.57;;;0.57;;
80193;SDS011;69515;42.072;21.504;2023-06-14T05:00:20;0.47;;;0.47;;
80193;SDS011;69515;42.072;21.504;2023-06-14T05:02:48;0.30;;;0.30;;
80193;SDS011;69515;42.072;21.504;2023-06-14T05:05:16;0.40;;;0.40;;
80193;SDS011;69515;42.072;21.504;2023-06-14T05:07:42;0.40;;;0.40;;
80193;SDS011;69515;42.072;21.504;2023-06-14T05:10:08;0.38;;;0.38;;
80193;SDS011;69515;42.072;21.504;2023-06-14T05:12:35;0.30;;;0.30;;
80193;SDS011;69515;42.072;21.504;2023-06-14T05:15:02;0.85;;;0.45;;
80193;SDS011;69515;42.072;21.504;2023-06-14T05:17:28;0.43;;;0.40;;
80193;SDS011;69515;42.072;21.504;2023-06-14T05:19:54;0.70;;;0.60;;
80193;SDS011;69515;42.072;21.504;2023-06-14T05:22:21;0.90;;;0.60;;
80193;SDS011;69515;42.072;21.504;2023-06-14T05:24:47;0.73;;;0.70;;
80193;SDS011;69515;42.072;21.504;2023-06-14T05:27:13;0.50;;;0.50;;
80193;SDS011;69515;42.072;21.504;2023-06-14T05:29:39;0.50;;;0.43;;
80193;SDS011;69515;42.072;21.504;2023-06-14T05:32:06;0.50;;;0.50;;
80193;SDS011;69515;42.072;21.504;2023-06-14T05:34:32;0.85;;;0.80;;
80193;SDS011;69515;42.072;21.504;2023-06-14T05:36:58;0.40;;;0.40;;
80193;SDS011;69515;42.072;21.504;2023-06-14T05:39:25;0.30;;;0.30;;
80193;SDS011;69515;42.072;21.504;2023-06-14T05:41:51;0.40;;;0.40;;
80193;SDS011;69515;42.072;21.504;2023-06-14T05:44:17;0.50;;;0.50;;
80193;SDS011;69515;42.072;21.504;2023-06-14T05:46:44;0.30;;;0.30;;
80193;SDS011;69515;42.072;21.504;2023-06-14T05:52:01;0.30;;;0.30;;
80193;SDS011;69515;42.072;21.504;2023-06-14T05:57:31;0.45;;;0.40;;
80193;SDS011;69515;42.072;21.504;2023-06-14T06:06:12;0.50;;;0.50;;
80193;SDS011;69515;42.072;21.504;2023-06-14T06:20:39;0.30;;;0.30;;
80193;SDS011;69515;42.072;21.504;2023-06-14T06:23:06;0.95;;;0.43;;
80193;SDS011;69515;42.072;21.504;2023-06-14T06:25:35;0.40;;;0.40;;
80193;SDS011;69515;42.072;21.504;2023-06-14T06:28:06;0.55;;;0.32;;
80193;SDS011;69515;42.072;21.504;2023-06-14T06:30:40;0.55;;;0.40;;
80193;SDS011;69515;42.072;21.504;2023-06-14T06:36:14;0.40;;;0.40;;
80193;SDS011;69515;42.072;21.504;2023-06-14T06:38:42;0.70;;;0.52;;
80193;SDS011;69515;42.072;21.504;2023-06-14T06:41:10;0.85;;;0.40;;
80193;SDS011;69515;42.072;21.504;2023-06-14T06:46:13;0.50;;;0.50;;
80193;SDS011;69515;42.072;21.504;2023-06-14T07:16:11;0.35;;;0.35;;
80193;SDS011;69515;42.072;21.504;2023-06-14T07:18:47;0.57;;;0.30;;
80193;SDS011;69515;42.072;21.504;2023-06-14T07:40:08;1.02;;;0.50;;
80193;SDS011;69515;42.072;21.504;2023-06-14T07:42:36;0.40;;;0.40;;
80193;SDS011;69515;42.072;21.504;2023-06-14T07:45:41;0.35;;;0.35;;
80193;SDS011;69515;42.072;21.504;2023-06-14T07:57:32;0.30;;;0.30;;
80193;SDS011;69515;42.072;21.504;2023-06-14T08:00:42;0.30;;;0.30;;
80193;SDS011;69515;42.072;21.504;2023-06-14T08:03:43;0.30;;;0.30;;
80193;SDS011;69515;42.072;21.504;2023-06-14T08:12:46;0.30;;;0.30;;
80193;SDS011;69515;42.072;21.504;2023-06-14T08:15:41;0.30;;;0.30;;
80193;SDS011;69515;42.072;21.504;2023-06-14T08:21:29;0.47;;;0.40;;
80193;SDS011;69515;42.072;21.504;2023-06-14T08:30:39;0.60;;;0.40;;
80193;SDS011;69515;42.072;21.504;2023-06-14T08:36:09;0.20;;;0.20;;
80193;SDS011;69515;42.072;21.504;2023-06-14T08:38:37;0.35;;;0.35;;
80193;SDS011;69515;42.072;21.504;2023-06-14T08:44:06;0.60;;;0.32;;
80193;SDS011;69515;42.072;21.504;2023-06-14T08:46:33;0.30;;;0.30;;
80193;SDS011;69515;42.072;21.504;2023-06-14T08:49:04;0.30;;;0.30;;
80193;SDS011;69515;42.072;21.504;2023-06-14T08:51:58;0.52;;;0.20;;
80193;SDS011;69515;42.072;21.504;2023-06-14T08:54:47;0.38;;;0.30;;
80193;SDS011;69515;42.072;21.504;2023-06-14T08:57:49;0.40;;;0.30;;
80193;SDS011;69515;42.072;21.504;2023-06-14T09:00:18;0.30;;;0.20;;
80193;SDS011;69515;42.072;21.504;2023-06-14T09:02:59;1.00;;;0.35;;
80193;SDS011;69515;42.072;21.504;2023-06-14T09:05:40;0.52;;;0.30;;
80193;SDS011;69515;42.072;21.504;2023-06-14T09:08:11;0.40;;;0.40;;
80193;SDS011;69515;42.072;21.504;2023-06-14T09:10:45;0.20;;;0.20;;
80193;SDS011;69515;42.072;21.504;2023-06-14T09:13:12;1.10;;;0.30;;
80193;SDS011;69515;42.072;21.504;2023-06-14T09:15:41;0.25;;;0.25;;
80193;SDS011;69515;42.072;21.504;2023-06-14T09:18:08;0.25;;;0.20;;
80193;SDS011;69515;42.072;21.504;2023-06-14T09:20:37;0.20;;;0.20;;
80193;SDS011;69515;42.072;21.504;2023-06-14T09:23:04;0.20;;;0.20;;
80193;SDS011;69515;42.072;21.504;2023-06-14T09:25:50;0.25;;;0.20;;
80193;SDS011;69515;42.072;21.504;2023-06-14T09:28:17;0.30;;;0.30;;
80193;SDS011;69515;42.072;21.504;2023-06-14T09:30:47;0.28;;;0.28;;
80193;SDS011;69515;42.072;21.504;2023-06-14T09:33:17;0.28;;;0.20;;
80193;SDS011;69515;42.072;21.504;2023-06-14T09:35:50;0.20;;;0.20;;
80193;SDS011;69515;42.072;21.504;2023-06-14T09:38:18;0.43;;;0.28;;
80193;SDS011;69515;42.072;21.504;2023-06-14T09:40:49;0.10;;;0.10;;
80193;SDS011;69515;42.072;21.504;2023-06-14T09:43:16;0.20;;;0.20;;
80193;SDS011;69515;42.072;21.504;2023-06-14T09:45:43;0.22;;;0.20;;
80193;SDS011;69515;42.072;21.504;2023-06-14T09:48:14;0.10;;;0.10;;
80193;SDS011;69515;42.072;21.504;2023-06-14T09:50:45;0.10;;;0.10;;
80193;SDS011;69515;42.072;21.504;2023-06-14T09:53:14;0.10;;;0.10;;
80193;SDS011;69515;42.072;21.504;2023-06-14T09:55:41;0.25;;;0.25;;
80193;SDS011;69515;42.072;21.504;2023-06-14T09:58:08;0.17;;;0.17;;
80193;SDS011;69515;42.072;21.504;2023-06-14T10:00:36;0.10;;;0.10;;
80193;SDS011;69515;42.072;21.504;2023-06-14T10:03:12;0.38;;;0.10;;
80193;SDS011;69515;42.072;21.504;2023-06-14T10:05:41;0.00;;;0.00;;
80193;SDS011;69515;42.072;21.504;2023-06-14T10:08:09;0.75;;;0.30;;
80193;SDS011;69515;42.072;21.504;2023-06-14T10:10:38;0.32;;;0.20;;
80193;SDS011;69515;42.072;21.504;2023-06-14T10:13:06;0.10;;;0.10;;
80193;SDS011;69515;42.072;21.504;2023-06-14T10:15:46;0.10;;;0.10;;
80193;SDS011;69515;42.072;21.504;2023-06-14T10:18:24;0.20;;;0.20;;
80193;SDS011;69515;42.072;21.504;2023-06-14T10:23:21;0.25;;;0.10;;
80193;SDS011;69515;42.072;21.504;2023-06-14T10:25:54;0.20;;;0.20;;
80193;SDS011;69515;42.072;21.504;2023-06-14T10:28:21;0.10;;;0.10;;
80193;SDS011;69515;42.072;21.504;2023-06-14T10:31:07;0.20;;;0.20;;
80193;SDS011;69515;42.072;21.504;2023-06-14T10:33:35;0.20;;;0.20;;
80193;SDS011;69515;42.072;21.504;2023-06-14T10:38:34;0.10;;;0.10;;
80193;SDS011;69515;42.072;21.504;2023-06-14T10:41:02;0.20;;;0.20;;
80193;SDS011;69515;42.072;21.504;2023-06-14T10:43:30;0.20;;;0.20;;
80193;SDS011;69515;42.072;21.504;2023-06-14T10:46:13;0.10;;;0.10;;
80193;SDS011;69515;42.072;21.504;2023-06-14T10:48:40;0.10;;;0.10;;
80193;SDS011;69515;42.072;21.504;2023-06-14T10:51:15;0.10;;;0.10;;
80193;SDS011;69515;42.072;21.504;2023-06-14T10:53:45;0.20;;;0.10;;
80193;SDS011;69515;42.072;21.504;2023-06-14T10:56:28;0.20;;;0.10;;
80193;SDS011;69515;42.072;21.504;2023-06-14T10:58:56;0.10;;;0.10;;
80193;SDS011;69515;42.072;21.504;2023-06-14T11:01:31;0.05;;;0.05;;
80193;SDS011;69515;42.072;21.504;2023-06-14T11:04:00;0.13;;;0.10;;
80193;SDS011;69515;42.072;21.504;2023-06-14T11:06:34;0.15;;;0.15;;
80193;SDS011;69515;42.072;21.504;2023-06-14T11:11:48;0.10;;;0.10;;
80193;SDS011;69515;42.072;21.504;2023-06-14T11:14:15;0.10;;;0.10;;
80193;SDS011;69515;42.072;21.504;2023-06-14T11:16:41;0.20;;;0.20;;
80193;SDS011;69515;42.072;21.504;2023-06-14T11:19:07;0.20;;;0.20;;
80193;SDS011;69515;42.072;21.504;2023-06-14T11:21:34;0.20;;;0.20;;
80193;SDS011;69515;42.072;21.504;2023-06-14T11:24:00;0.20;;;0.20;;
80193;SDS011;69515;42.072;21.504;2023-06-14T11:26:27;0.10;;;0.10;;
80193;SDS011;69515;42.072;21.504;2023-06-14T11:29:00;0.52;;;0.28;;
80193;SDS011;69515;42.072;21.504;2023-06-14T11:31:27;0.10;;;0.10;;
80193;SDS011;69515;42.072;21.504;2023-06-14T11:33:54;0.10;;;0.10;;
80193;SDS011;69515;42.072;21.504;2023-06-14T11:36:22;0.38;;;0.20;;
80193;SDS011;69515;42.072;21.504;2023-06-14T11:38:48;0.10;;;0.10;;
80193;SDS011;69515;42.072;21.504;2023-06-14T11:41:15;0.35;;;0.20;;
80193;SDS011;69515;42.072;21.504;2023-06-14T11:43:41;0.38;;;0.20;;
80193;SDS011;69515;42.072;21.504;2023-06-14T11:46:14;0.10;;;0.10;;
80193;SDS011;69515;42.072;21.504;2023-06-14T11:48:42;0.10;;;0.10;;
80193;SDS011;69515;42.072;21.504;2023-06-14T11:51:08;0.10;;;0.10;;
80193;SDS011;69515;42.072;21.504;2023-06-14T11:53:35;0.10;;;0.10;;
80193;SDS011;69515;42.072;21.504;2023-06-14T11:56:01;0.43;;;0.20;;
80193;SDS011;69515;42.072;21.504;2023-06-14T11:58:28;0.13;;;0.13;;
80193;SDS011;69515;42.072;21.504;2023-06-14T12:00:55;0.17;;;0.17;;
80193;SDS011;69515;42.072;21.504;2023-06-14T12:03:24;0.10;;;0.10;;
80193;SDS011;69515;42.072;21.504;2023-06-14T12:06:04;0.17;;;0.17;;
80193;SDS011;69515;42.072;21.504;2023-06-14T12:08:38;0.20;;;0.20;;
80193;SDS011;69515;42.072;21.504;2023-06-14T12:11:12;0.13;;;0.10;;
80193;SDS011;69515;42.072;21.504;2023-06-14T12:13:41;0.20;;;0.20;;
80193;SDS011;69515;42.072;21.504;2023-06-14T12:16:08;0.20;;;0.10;;
80193;SDS011;69515;42.072;21.504;2023-06-14T12:18:35;0.20;;;0.20;;
80193;SDS011;69515;42.072;21.504;2023-06-14T12:21:08;0.20;;;0.20;;
80193;SDS011;69515;42.072;21.504;2023-06-14T12:23:45;0.25;;;0.25;;
80193;SDS011;69515;42.072;21.504;2023-06-14T12:26:12;0.20;;;0.20;;
80193;SDS011;69515;42.072;21.504;2023-06-14T12:28:40;0.30;;;0.15;;
80193;SDS011;69515;42.072;21.504;2023-06-14T12:31:10;0.30;;;0.30;;
80193;SDS011;69515;42.072;21.504;2023-06-14T12:33:37;0.20;;;0.20;;
80193;SDS011;69515;42.072;21.504;2023-06-14T12:36:04;0.20;;;0.20;;
80193;SDS011;69515;42.072;21.504;2023-06-14T12:38:31;0.20;;;0.20;;
80193;SDS011;69515;42.072;21.504;2023-06-14T12:40:57;0.20;;;0.20;;
80193;SDS011;69515;42.072;21.504;2023-06-14T12:43:23;0.25;;;0.20;;
80193;SDS011;69515;42.072;21.504;2023-06-14T12:45:50;0.20;;;0.20;;
80193;SDS011;69515;42.072;21.504;2023-06-14T12:48:16;0.20;;;0.15;;
80193;SDS011;69515;42.072;21.504;2023-06-14T12:50:42;0.20;;;0.20;;
80193;SDS011;69515;42.072;21.504;2023-06-14T12:53:08;0.20;;;0.20;;
80193;SDS011;69515;42.072;21.504;2023-06-14T12:55:35;0.20;;;0.20;;
80193;SDS011;69515;42.072;21.504;2023-06-14T12:58:01;0.30;;;0.30;;
80193;SDS011;69515;42.072;21.504;2023-06-14T13:00:27;0.65;;;0.30;;
80193;SDS011;69515;42.072;21.504;2023-06-14T13:02:55;0.20;;;0.20;;
80193;SDS011;69515;42.072;21.504;2023-06-14T13:05:22;0.40;;;0.30;;
80193;SDS011;69515;42.072;21.504;2023-06-14T13:07:48;0.30;;;0.30;;
80193;SDS011;69515;42.072;21.504;2023-06-14T13:10:15;0.20;;;0.20;;
80193;SDS011;69515;42.072;21.504;2023-06-14T13:12:41;0.30;;;0.30;;
80193;SDS011;69515;42.072;21.504;2023-06-14T13:15:08;0.63;;;0.35;;
80193;SDS011;69515;42.072;21.504;2023-06-14T13:17:34;0.20;;;0.20;;
80193;SDS011;69515;42.072;21.504;2023-06-14T13:20:06;0.17;;;0.17;;
80193;SDS011;69515;42.072;21.504;2023-06-14T13:22:33;0.17;;;0.17;;
80193;SDS011;69515;42.072;21.504;2023-06-14T13:25:00;0.20;;;0.20;;
80193;SDS011;69515;42.072;21.504;2023-06-14T13:27:26;0.35;;;0.30;;
80193;SDS011;69515;42.072;21.504;2023-06-14T13:29:53;0.20;;;0.20;;
80193;SDS011;69515;42.072;21.504;2023-06-14T13:32:22;0.20;;;0.20;;
80193;SDS011;69515;42.072;21.504;2023-06-14T13:34:48;0.20;;;0.20;;
80193;SDS011;69515;42.072;21.504;2023-06-14T13:37:15;0.20;;;0.20;;
80193;SDS011;69515;42.072;21.504;2023-06-14T13:39:41;0.20;;;0.20;;
80193;SDS011;69515;42.072;21.504;2023-06-14T13:42:07;0.20;;;0.20;;
80193;SDS011;69515;42.072;21.504;2023-06-14T13:44:33;0.50;;;0.20;;
80193;SDS011;69515;42.072;21.504;2023-06-14T13:47:00;0.20;;;0.20;;
80193;SDS011;69515;42.072;21.504;2023-06-14T13:49:26;0.30;;;0.30;;
80193;SDS011;69515;42.072;21.504;2023-06-14T13:51:52;0.38;;;0.22;;
80193;SDS011;69515;42.072;21.504;2023-06-14T13:54:21;0.30;;;0.30;;
80193;SDS011;69515;42.072;21.504;2023-06-14T13:56:48;0.40;;;0.40;;
80193;SDS011;69515;42.072;21.504;2023-06-14T13:59:14;0.47;;;0.30;;
80193;SDS011;69515;42.072;21.504;2023-06-14T14:01:41;0.30;;;0.30;;
80193;SDS011;69515;42.072;21.504;2023-06-14T14:04:07;0.30;;;0.30;;
80193;SDS011;69515;42.072;21.504;2023-06-14T14:06:34;0.35;;;0.35;;
80193;SDS011;69515;42.072;21.504;2023-06-14T14:09:00;0.30;;;0.30;;
80193;SDS011;69515;42.072;21.504;2023-06-14T14:11:26;0.45;;;0.30;;
80193;SDS011;69515;42.072;21.504;2023-06-14T14:13:53;0.20;;;0.20;;
80193;SDS011;69515;42.072;21.504;2023-06-14T14:16:19;0.28;;;0.28;;
80193;SDS011;69515;42.072;21.504;2023-06-14T14:18:46;0.30;;;0.30;;
80193;SDS011;69515;42.072;21.504;2023-06-14T14:21:12;0.22;;;0.22;;
80193;SDS011;69515;42.072;21.504;2023-06-14T14:23:38;0.40;;;0.40;;
80193;SDS011;69515;42.072;21.504;2023-06-14T14:26:04;0.17;;;0.17;;
80193;SDS011;69515;42.072;21.504;2023-06-14T14:28:31;0.20;;;0.20;;
80193;SDS011;69515;42.072;21.504;2023-06-14T14:30:58;0.20;;;0.20;;
80193;SDS011;69515;42.072;21.504;2023-06-14T14:33:25;0.30;;;0.30;;
80193;SDS011;69515;42.072;21.504;2023-06-14T14:35:51;0.38;;;0.38;;
80193;SDS011;69515;42.072;21.504;2023-06-14T14:38:17;0.70;;;0.30;;
80193;SDS011;69515;42.072;21.504;2023-06-14T14:40:43;0.20;;;0.20;;
80193;SDS011;69515;42.072;21.504;2023-06-14T14:43:10;0.20;;;0.20;;
80193;SDS011;69515;42.072;21.504;2023-06-14T14:45:36;0.60;;;0.30;;
80193;SDS011;69515;42.072;21.504;2023-06-14T14:48:03;0.30;;;0.30;;
80193;SDS011;69515;42.072;21.504;2023-06-14T14:50:29;0.28;;;0.28;;
80193;SDS011;69515;42.072;21.504;2023-06-14T14:52:55;0.30;;;0.30;;
80193;SDS011;69515;42.072;21.504;2023-06-14T14:55:22;0.30;;;0.30;;
80193;SDS011;69515;42.072;21.504;2023-06-14T14:57:48;0.85;;;0.30;;
80193;SDS011;69515;42.072;21.504;2023-06-14T15:00:14;0.35;;;0.30;;
80193;SDS011;69515;42.072;21.504;2023-06-14T15:02:41;0.55;;;0.22;;
80193;SDS011;69515;42.072;21.504;2023-06-14T15:05:07;0.35;;;0.35;;
80193;SDS011;69515;42.072;21.504;2023-06-14T15:07:33;0.68;;;0.40;;
80193;SDS011;69515;42.072;21.504;2023-06-14T15:10:00;0.40;;;0.40;;
80193;SDS011;69515;42.072;21.504;2023-06-14T15:12:26;0.32;;;0.32;;
80193;SDS011;69515;42.072;21.504;2023-06-14T15:14:53;0.32;;;0.32;;
80193;SDS011;69515;42.072;21.504;2023-06-14T15:17:19;0.40;;;0.40;;
80193;SDS011;69515;42.072;21.504;2023-06-14T15:19:46;0.52;;;0.28;;
80193;SDS011;69515;42.072;21.504;2023-06-14T15:22:13;0.35;;;0.35;;
80193;SDS011;69515;42.072;21.504;2023-06-14T15:24:42;0.40;;;0.40;;
80193;SDS011;69515;42.072;21.504;2023-06-14T15:27:09;0.38;;;0.30;;
80193;SDS011;69515;42.072;21.504;2023-06-14T15:29:41;0.20;;;0.20;;
80193;SDS011;69515;42.072;21.504;2023-06-14T15:32:08;0.30;;;0.30;;
80193;SDS011;69515;42.072;21.504;2023-06-14T15:34:34;0.40;;;0.40;;
80193;SDS011;69515;42.072;21.504;2023-06-14T15:37:01;0.30;;;0.30;;
80193;SDS011;69515;42.072;21.504;2023-06-14T15:39:28;0.40;;;0.40;;
80193;SDS011;69515;42.072;21.504;2023-06-14T15:41:57;0.30;;;0.30;;
80193;SDS011;69515;42.072;21.504;2023-06-14T15:44:43;0.30;;;0.30;;
80193;SDS011;69515;42.072;21.504;2023-06-14T15:47:09;0.55;;;0.40;;
80193;SDS011;69515;42.072;21.504;2023-06-14T15:49:35;0.32;;;0.32;;
80193;SDS011;69515;42.072;21.504;2023-06-14T15:52:01;0.40;;;0.40;;
80193;SDS011;69515;42.072;21.504;2023-06-14T15:54:28;0.30;;;0.30;;
80193;SDS011;69515;42.072;21.504;2023-06-14T15:56:54;0.30;;;0.30;;
80193;SDS011;69515;42.072;21.504;2023-06-14T15:59:20;0.38;;;0.22;;
80193;SDS011;69515;42.072;21.504;2023-06-14T16:01:46;0.30;;;0.30;;
80193;SDS011;69515;42.072;21.504;2023-06-14T16:04:13;0.43;;;0.40;;
80193;SDS011;69515;42.072;21.504;2023-06-14T16:06:39;0.32;;;0.32;;
80193;SDS011;69515;42.072;21.504;2023-06-14T16:09:05;0.30;;;0.30;;
80193;SDS011;69515;42.072;21.504;2023-06-14T16:11:31;0.30;;;0.30;;
80193;SDS011;69515;42.072;21.504;2023-06-14T16:13:57;0.32;;;0.32;;
80193;SDS011;69515;42.072;21.504;2023-06-14T16:16:24;0.28;;;0.28;;
80193;SDS011;69515;42.072;21.504;2023-06-14T16:18:50;0.50;;;0.50;;
80193;SDS011;69515;42.072;21.504;2023-06-14T16:21:16;0.40;;;0.40;;
80193;SDS011;69515;42.072;21.504;2023-06-14T16:23:42;0.40;;;0.40;;
80193;SDS011;69515;42.072;21.504;2023-06-14T16:26:09;0.30;;;0.30;;
80193;SDS011;69515;42.072;21.504;2023-06-14T16:28:39;0.30;;;0.30;;
80193;SDS011;69515;42.072;21.504;2023-06-14T16:31:12;0.40;;;0.40;;
80193;SDS011;69515;42.072;21.504;2023-06-14T16:36:19;0.32;;;0.32;;
80193;SDS011;69515;42.072;21.504;2023-06-14T16:38:45;0.40;;;0.40;;
80193;SDS011;69515;42.072;21.504;2023-06-14T16:41:11;0.40;;;0.40;;
80193;SDS011;69515;42.072;21.504;2023-06-14T16:43:38;0.45;;;0.40;;